sensor_id;sensor_type;location;lat;lon;timestamp;pressure;altitude;pressure_sealevel;temperature;humidity
35224;BME280;21367;51.930;8.112;2023-02-21T00:05:12;101273.06;;;7.99;100.00
35224;BME280;21367;51.930;8.112;2023-02-21T00:10:28;101268.59;;;8.09;100.00
35224;BME280;21367;51.930;8.112;2023-02-21T00:15:47;101276.03;;;8.20;100.00
35224;BME280;21367;51.930;8.112;2023-02-21T00:21:04;101280.34;;;8.06;100.00
35224;BME280;21367;51.930;8.112;2023-02-21T00:26:21;101273.03;;;8.12;100.00
35224;BME280;21367;51.930;8.112;2023-02-21T00:31:39;101273.91;;;8.13;100.00
35224;BME280;21367;51.930;8.112;2023-02-21T00:36:56;101279.91;;;8.13;100.00
35224;BME280;21367;51.930;8.112;2023-02-21T00:42:12;101276.19;;;8.08;100.00
35224;BME280;21367;51.930;8.112;2023-02-21T00:47:30;101286.34;;;8.34;100.00
35224;BME280;21367;51.930;8.112;2023-02-21T00:52:46;101272.69;;;8.21;100.00
35224;BME280;21367;51.930;8.112;2023-02-21T00:58:03;101274.97;;;8.16;100.00
35224;BME280;21367;51.930;8.112;2023-02-21T01:03:21;101254.56;;;8.03;100.00
35224;BME280;21367;51.930;8.112;2023-02-21T01:08:40;101249.81;;;8.24;100.00
35224;BME280;21367;51.930;8.112;2023-02-21T01:13:56;101255.81;;;8.09;100.00
35224;BME280;21367;51.930;8.112;2023-02-21T01:19:16;101247.06;;;8.06;100.00
35224;BME280;21367;51.930;8.112;2023-02-21T01:24:32;101254.75;;;7.93;100.00
35224;BME280;21367;51.930;8.112;2023-02-21T01:29:48;101261.25;;;8.01;100.00
35224;BME280;21367;51.930;8.112;2023-02-21T01:35:07;101257.13;;;8.18;100.00
35224;BME280;21367;51.930;8.112;2023-02-21T01:40:25;101260.00;;;7.94;100.00
35224;BME280;21367;51.930;8.112;2023-02-21T01:45:46;101265.56;;;8.02;100.00
35224;BME280;21367;51.930;8.112;2023-02-21T01:51:07;101263.94;;;7.89;100.00
35224;BME280;21367;51.930;8.112;2023-02-21T01:56:25;101262.78;;;8.12;100.00
35224;BME280;21367;51.930;8.112;2023-02-21T02:01:46;101257.38;;;8.07;100.00
35224;BME280;21367;51.930;8.112;2023-02-21T02:07:08;101267.81;;;8.10;100.00
35224;BME280;21367;51.930;8.112;2023-02-21T02:12:55;101265.06;;;8.07;100.00
35224;BME280;21367;51.930;8.112;2023-02-21T02:18:12;101256.94;;;8.00;100.00
35224;BME280;21367;51.930;8.112;2023-02-21T02:29:14;101249.63;;;7.93;100.00
35224;BME280;21367;51.930;8.112;2023-02-21T02:34:36;101236.13;;;8.23;100.00
35224;BME280;21367;51.930;8.112;2023-02-21T02:39:47;101236.13;;;8.08;100.00
35224;BME280;21367;51.930;8.112;2023-02-21T02:45:00;101251.25;;;7.91;100.00
35224;BME280;21367;51.930;8.112;2023-02-21T02:50:10;101235.94;;;8.05;100.00
35224;BME280;21367;51.930;8.112;2023-02-21T02:55:29;101241.13;;;8.07;100.00
35224;BME280;21367;51.930;8.112;2023-02-21T03:00:35;101253.06;;;8.06;100.00
35224;BME280;21367;51.930;8.112;2023-02-21T03:05:59;101231.97;;;8.10;100.00
35224;BME280;21367;51.930;8.112;2023-02-21T03:11:10;101240.19;;;8.20;100.00
35224;BME280;21367;51.930;8.112;2023-02-21T03:16:20;101260.25;;;7.99;100.00
35224;BME280;21367;51.930;8.112;2023-02-21T03:21:30;101262.53;;;7.94;100.00
35224;BME280;21367;51.930;8.112;2023-02-21T03:26:36;101259.88;;;8.21;100.00
35224;BME280;21367;51.930;8.112;2023-02-21T03:32:02;101267.44;;;8.04;100.00
35224;BME280;21367;51.930;8.112;2023-02-21T03:37:20;101281.16;;;7.92;100.00
35224;BME280;21367;51.930;8.112;2023-02-21T03:42:24;101272.13;;;8.11;100.00
35224;BME280;21367;51.930;8.112;2023-02-21T03:47:28;101271.28;;;7.98;100.00
35224;BME280;21367;51.930;8.112;2023-02-21T03:52:35;101279.03;;;8.13;100.00
35224;BME280;21367;51.930;8.112;2023-02-21T03:57:39;101283.28;;;7.99;100.00
35224;BME280;21367;51.930;8.112;2023-02-21T04:02:43;101278.66;;;8.06;100.00
35224;BME280;21367;51.930;8.112;2023-02-21T04:08:02;101287.34;;;7.95;100.00
35224;BME280;21367;51.930;8.112;2023-02-21T04:13:07;101292.28;;;8.20;100.00
35224;BME280;21367;51.930;8.112;2023-02-21T04:18:16;101291.78;;;8.26;100.00
35224;BME280;21367;51.930;8.112;2023-02-21T04:23:24;101292.31;;;7.79;100.00
35224;BME280;21367;51.930;8.112;2023-02-21T04:28:29;101292.25;;;8.05;100.00
35224;BME280;21367;51.930;8.112;2023-02-21T04:33:33;101305.06;;;7.92;100.00
35224;BME280;21367;51.930;8.112;2023-02-21T04:38:40;101300.13;;;8.08;100.00
35224;BME280;21367;51.930;8.112;2023-02-21T04:43:44;101297.47;;;8.07;100.00
35224;BME280;21367;51.930;8.112;2023-02-21T04:48:50;101297.69;;;7.97;100.00
35224;BME280;21367;51.930;8.112;2023-02-21T04:53:56;101296.69;;;7.95;100.00
35224;BME280;21367;51.930;8.112;2023-02-21T04:59:00;101290.78;;;7.96;100.00
35224;BME280;21367;51.930;8.112;2023-02-21T05:04:04;101290.97;;;7.99;100.00
35224;BME280;21367;51.930;8.112;2023-02-21T05:09:10;101296.34;;;7.75;100.00
35224;BME280;21367;51.930;8.112;2023-02-21T05:14:14;101293.69;;;7.74;100.00
35224;BME280;21367;51.930;8.112;2023-02-21T05:19:19;101282.47;;;7.72;100.00
35224;BME280;21367;51.930;8.112;2023-02-21T05:24:29;101279.13;;;7.73;100.00
35224;BME280;21367;51.930;8.112;2023-02-21T05:29:33;101280.00;;;7.73;100.00
35224;BME280;21367;51.930;8.112;2023-02-21T05:34:37;101271.28;;;7.56;100.00
35224;BME280;21367;51.930;8.112;2023-02-21T05:39:46;101266.16;;;7.56;100.00
35224;BME280;21367;51.930;8.112;2023-02-21T05:44:50;101270.06;;;7.78;100.00
35224;BME280;21367;51.930;8.112;2023-02-21T05:49:54;101258.84;;;7.76;100.00
35224;BME280;21367;51.930;8.112;2023-02-21T05:55:00;101269.19;;;7.64;100.00
35224;BME280;21367;51.930;8.112;2023-02-21T06:00:05;101274.84;;;7.58;100.00
35224;BME280;21367;51.930;8.112;2023-02-21T06:05:16;101253.50;;;7.31;100.00
35224;BME280;21367;51.930;8.112;2023-02-21T06:10:22;101261.53;;;7.51;100.00
35224;BME280;21367;51.930;8.112;2023-02-21T06:15:26;101261.31;;;7.61;100.00
35224;BME280;21367;51.930;8.112;2023-02-21T06:20:30;101252.34;;;7.68;100.00
35224;BME280;21367;51.930;8.112;2023-02-21T06:25:37;101261.25;;;7.59;100.00
35224;BME280;21367;51.930;8.112;2023-02-21T06:30:41;101254.19;;;7.55;100.00
35224;BME280;21367;51.930;8.112;2023-02-21T06:35:45;101250.91;;;7.71;100.00
35224;BME280;21367;51.930;8.112;2023-02-21T06:40:51;101252.19;;;7.51;100.00
35224;BME280;21367;51.930;8.112;2023-02-21T06:45:56;101251.41;;;7.65;100.00
35224;BME280;21367;51.930;8.112;2023-02-21T06:51:00;101250.28;;;7.75;100.00
35224;BME280;21367;51.930;8.112;2023-02-21T06:56:11;101245.78;;;7.71;100.00
35224;BME280;21367;51.930;8.112;2023-02-21T07:01:15;101261.53;;;7.64;100.00
35224;BME280;21367;51.930;8.112;2023-02-21T07:06:19;101256.59;;;7.80;100.00
35224;BME280;21367;51.930;8.112;2023-02-21T07:11:26;101258.16;;;7.78;100.00
35224;BME280;21367;51.930;8.112;2023-02-21T07:16:31;101259.00;;;7.92;100.00
35224;BME280;21367;51.930;8.112;2023-02-21T07:21:34;101264.75;;;7.75;100.00
35224;BME280;21367;51.930;8.112;2023-02-21T07:26:41;101265.69;;;7.62;100.00
35224;BME280;21367;51.930;8.112;2023-02-21T07:31:45;101269.19;;;7.77;100.00
35224;BME280;21367;51.930;8.112;2023-02-21T07:36:49;101275.56;;;7.71;100.00
35224;BME280;21367;51.930;8.112;2023-02-21T07:41:55;101286.59;;;7.70;100.00
35224;BME280;21367;51.930;8.112;2023-02-21T07:47:03;101285.88;;;7.85;100.00
35224;BME280;21367;51.930;8.112;2023-02-21T07:52:06;101291.53;;;7.67;100.00
35224;BME280;21367;51.930;8.112;2023-02-21T07:57:14;101295.94;;;7.82;100.00
35224;BME280;21367;51.930;8.112;2023-02-21T08:02:18;101301.75;;;7.80;100.00
35224;BME280;21367;51.930;8.112;2023-02-21T08:07:22;101305.78;;;7.76;100.00
35224;BME280;21367;51.930;8.112;2023-02-21T08:12:28;101304.50;;;7.70;100.00
35224;BME280;21367;51.930;8.112;2023-02-21T08:17:32;101310.03;;;7.62;100.00
35224;BME280;21367;51.930;8.112;2023-02-21T08:22:36;101305.59;;;7.73;100.00
35224;BME280;21367;51.930;8.112;2023-02-21T08:27:43;101318.09;;;7.69;100.00
35224;BME280;21367;51.930;8.112;2023-02-21T08:32:47;101314.88;;;7.71;100.00
35224;BME280;21367;51.930;8.112;2023-02-21T08:37:51;101316.13;;;7.78;100.00
35224;BME280;21367;51.930;8.112;2023-02-21T08:42:59;101322.59;;;7.99;100.00
35224;BME280;21367;51.930;8.112;2023-02-21T08:48:04;101314.91;;;7.99;100.00
35224;BME280;21367;51.930;8.112;2023-02-21T08:53:10;101322.41;;;7.70;100.00
35224;BME280;21367;51.930;8.112;2023-02-21T08:58:18;101321.13;;;7.76;100.00
35224;BME280;21367;51.930;8.112;2023-02-21T09:03:21;101323.88;;;7.79;100.00
35224;BME280;21367;51.930;8.112;2023-02-21T09:08:25;101330.47;;;7.89;100.00
35224;BME280;21367;51.930;8.112;2023-02-21T09:13:34;101329.81;;;7.78;100.00
35224;BME280;21367;51.930;8.112;2023-02-21T09:18:37;101332.56;;;7.81;100.00
35224;BME280;21367;51.930;8.112;2023-02-21T09:23:41;101324.34;;;8.00;100.00
35224;BME280;21367;51.930;8.112;2023-02-21T09:28:47;101322.19;;;8.06;100.00
35224;BME280;21367;51.930;8.112;2023-02-21T09:33:51;101325.34;;;8.02;100.00
35224;BME280;21367;51.930;8.112;2023-02-21T09:38:55;101321.25;;;8.19;100.00
35224;BME280;21367;51.930;8.112;2023-02-21T09:44:03;101317.38;;;8.26;100.00
35224;BME280;21367;51.930;8.112;2023-02-21T09:49:13;101330.16;;;8.39;100.00
35224;BME280;21367;51.930;8.112;2023-02-21T09:54:23;101324.03;;;8.09;100.00
35224;BME280;21367;51.930;8.112;2023-02-21T09:59:30;101328.78;;;8.03;100.00
35224;BME280;21367;51.930;8.112;2023-02-21T10:04:43;101328.88;;;8.32;100.00
35224;BME280;21367;51.930;8.112;2023-02-21T10:09:54;101322.38;;;8.38;100.00
35224;BME280;21367;51.930;8.112;2023-02-21T10:15:16;101327.16;;;8.60;100.00
35224;BME280;21367;51.930;8.112;2023-02-21T10:20:26;101325.31;;;8.87;100.00
35224;BME280;21367;51.930;8.112;2023-02-21T10:25:43;101333.78;;;8.71;100.00
35224;BME280;21367;51.930;8.112;2023-02-21T10:30:56;101334.31;;;8.80;100.00
35224;BME280;21367;51.930;8.112;2023-02-21T10:36:00;101324.84;;;8.49;100.00
35224;BME280;21367;51.930;8.112;2023-02-21T10:41:05;101329.91;;;8.63;100.00
35224;BME280;21367;51.930;8.112;2023-02-21T10:46:15;101328.66;;;8.56;100.00
35224;BME280;21367;51.930;8.112;2023-02-21T10:51:29;101336.88;;;8.65;100.00
35224;BME280;21367;51.930;8.112;2023-02-21T10:56:34;101330.97;;;8.66;100.00
35224;BME280;21367;51.930;8.112;2023-02-21T11:01:44;101334.09;;;8.90;100.00
35224;BME280;21367;51.930;8.112;2023-02-21T11:06:50;101328.34;;;8.94;100.00
35224;BME280;21367;51.930;8.112;2023-02-21T11:12:00;101322.88;;;8.88;100.00
35224;BME280;21367;51.930;8.112;2023-02-21T11:17:23;101318.78;;;8.77;100.00
35224;BME280;21367;51.930;8.112;2023-02-21T11:22:36;101316.78;;;8.58;100.00
35224;BME280;21367;51.930;8.112;2023-02-21T11:27:43;101319.91;;;8.67;100.00
35224;BME280;21367;51.930;8.112;2023-02-21T11:32:52;101317.66;;;8.44;100.00
35224;BME280;21367;51.930;8.112;2023-02-21T11:37:59;101311.31;;;8.52;100.00
35224;BME280;21367;51.930;8.112;2023-02-21T11:43:20;101303.25;;;8.46;100.00
35224;BME280;21367;51.930;8.112;2023-02-21T11:48:28;101299.03;;;8.33;100.00
35224;BME280;21367;51.930;8.112;2023-02-21T11:53:38;101296.72;;;8.51;100.00
35224;BME280;21367;51.930;8.112;2023-02-21T11:58:50;101299.84;;;8.32;100.00
35224;BME280;21367;51.930;8.112;2023-02-21T12:04:09;101294.13;;;8.79;100.00
35224;BME280;21367;51.930;8.112;2023-02-21T12:09:21;101289.59;;;8.90;100.00
35224;BME280;21367;51.930;8.112;2023-02-21T12:14:57;101282.34;;;8.68;100.00
35224;BME280;21367;51.930;8.112;2023-02-21T12:20:17;101280.94;;;8.58;100.00
35224;BME280;21367;51.930;8.112;2023-02-21T12:25:32;101275.28;;;8.35;100.00
35224;BME280;21367;51.930;8.112;2023-02-21T12:30:54;101270.94;;;8.20;100.00
35224;BME280;21367;51.930;8.112;2023-02-21T12:36:26;101271.56;;;8.44;100.00
35224;BME280;21367;51.930;8.112;2023-02-21T12:41:47;101270.09;;;8.34;100.00
35224;BME280;21367;51.930;8.112;2023-02-21T12:46:57;101268.00;;;8.14;100.00
35224;BME280;21367;51.930;8.112;2023-02-21T12:52:14;101263.84;;;8.16;100.00
35224;BME280;21367;51.930;8.112;2023-02-21T12:57:23;101265.56;;;8.30;100.00
35224;BME280;21367;51.930;8.112;2023-02-21T13:02:35;101263.28;;;8.34;100.00
35224;BME280;21367;51.930;8.112;2023-02-21T13:07:49;101260.50;;;8.45;100.00
35224;BME280;21367;51.930;8.112;2023-02-21T13:12:58;101254.59;;;8.61;100.00
35224;BME280;21367;51.930;8.112;2023-02-21T13:18:06;101256.19;;;8.58;100.00
35224;BME280;21367;51.930;8.112;2023-02-21T13:23:42;101245.50;;;8.95;100.00
35224;BME280;21367;51.930;8.112;2023-02-21T13:28:51;101238.09;;;9.00;100.00
35224;BME280;21367;51.930;8.112;2023-02-21T13:33:58;101233.38;;;8.05;100.00
35224;BME280;21367;51.930;8.112;2023-02-21T13:39:16;101234.28;;;8.49;100.00
35224;BME280;21367;51.930;8.112;2023-02-21T13:44:23;101224.06;;;8.35;100.00
35224;BME280;21367;51.930;8.112;2023-02-21T13:49:51;101221.66;;;8.67;100.00
35224;BME280;21367;51.930;8.112;2023-02-21T13:55:22;101222.19;;;8.61;100.00
35224;BME280;21367;51.930;8.112;2023-02-21T14:00:45;101218.38;;;8.54;100.00
35224;BME280;21367;51.930;8.112;2023-02-21T14:11:27;101215.97;;;8.43;100.00
35224;BME280;21367;51.930;8.112;2023-02-21T14:16:33;101219.00;;;8.50;100.00
35224;BME280;21367;51.930;8.112;2023-02-21T14:21:42;101217.16;;;8.63;100.00
35224;BME280;21367;51.930;8.112;2023-02-21T14:26:54;101218.28;;;8.38;100.00
35224;BME280;21367;51.930;8.112;2023-02-21T14:32:22;101224.75;;;8.76;100.00
35224;BME280;21367;51.930;8.112;2023-02-21T14:37:35;101213.97;;;8.67;100.00
35224;BME280;21367;51.930;8.112;2023-02-21T14:43:04;101207.44;;;8.57;100.00
35224;BME280;21367;51.930;8.112;2023-02-21T14:48:44;101205.13;;;8.47;100.00
35224;BME280;21367;51.930;8.112;2023-02-21T14:54:00;101204.34;;;8.48;100.00
35224;BME280;21367;51.930;8.112;2023-02-21T14:59:41;101201.34;;;8.40;100.00
35224;BME280;21367;51.930;8.112;2023-02-21T15:04:54;101198.50;;;8.80;100.00
35224;BME280;21367;51.930;8.112;2023-02-21T15:10:14;101194.69;;;8.73;100.00
35224;BME280;21367;51.930;8.112;2023-02-21T15:15:24;101196.31;;;8.71;100.00
35224;BME280;21367;51.930;8.112;2023-02-21T15:20:33;101191.63;;;8.64;100.00
35224;BME280;21367;51.930;8.112;2023-02-21T15:25:37;101194.25;;;8.80;100.00
35224;BME280;21367;51.930;8.112;2023-02-21T15:30:56;101197.00;;;8.54;100.00
35224;BME280;21367;51.930;8.112;2023-02-21T15:36:04;101196.13;;;8.68;100.00
35224;BME280;21367;51.930;8.112;2023-02-21T15:41:25;101196.63;;;9.07;100.00
35224;BME280;21367;51.930;8.112;2023-02-21T15:46:39;101192.31;;;8.91;100.00
35224;BME280;21367;51.930;8.112;2023-02-21T15:51:45;101190.03;;;8.66;100.00
35224;BME280;21367;51.930;8.112;2023-02-21T15:56:59;101191.38;;;8.60;100.00
35224;BME280;21367;51.930;8.112;2023-02-21T16:02:16;101197.81;;;8.53;100.00
35224;BME280;21367;51.930;8.112;2023-02-21T16:07:22;101192.81;;;9.00;100.00
35224;BME280;21367;51.930;8.112;2023-02-21T16:12:34;101191.50;;;9.07;100.00
35224;BME280;21367;51.930;8.112;2023-02-21T16:17:42;101188.22;;;8.95;100.00
35224;BME280;21367;51.930;8.112;2023-02-21T16:22:47;101199.81;;;8.58;100.00
35224;BME280;21367;51.930;8.112;2023-02-21T16:27:55;101195.69;;;8.90;100.00
35224;BME280;21367;51.930;8.112;2023-02-21T16:33:04;101204.19;;;9.06;100.00
35224;BME280;21367;51.930;8.112;2023-02-21T16:38:12;101203.09;;;8.86;100.00
35224;BME280;21367;51.930;8.112;2023-02-21T16:43:19;101199.00;;;9.04;100.00
35224;BME280;21367;51.930;8.112;2023-02-21T16:48:27;101192.19;;;8.90;100.00
35224;BME280;21367;51.930;8.112;2023-02-21T16:53:33;101190.56;;;8.90;100.00
35224;BME280;21367;51.930;8.112;2023-02-21T16:58:41;101195.75;;;8.77;100.00
35224;BME280;21367;51.930;8.112;2023-02-21T17:03:48;101198.94;;;8.88;100.00
35224;BME280;21367;51.930;8.112;2023-02-21T17:08:52;101190.59;;;9.07;100.00
35224;BME280;21367;51.930;8.112;2023-02-21T17:13:58;101195.09;;;9.11;100.00
35224;BME280;21367;51.930;8.112;2023-02-21T17:19:04;101192.06;;;9.18;100.00
35224;BME280;21367;51.930;8.112;2023-02-21T17:24:13;101196.69;;;9.09;100.00
35224;BME280;21367;51.930;8.112;2023-02-21T17:29:17;101203.16;;;9.02;100.00
35224;BME280;21367;51.930;8.112;2023-02-21T17:34:24;101200.34;;;8.97;100.00
35224;BME280;21367;51.930;8.112;2023-02-21T17:39:28;101198.13;;;9.03;100.00
35224;BME280;21367;51.930;8.112;2023-02-21T17:44:31;101190.00;;;8.96;100.00
35224;BME280;21367;51.930;8.112;2023-02-21T17:49:40;101195.06;;;9.25;100.00
35224;BME280;21367;51.930;8.112;2023-02-21T17:54:44;101193.31;;;9.24;100.00
35224;BME280;21367;51.930;8.112;2023-02-21T17:59:48;101192.50;;;9.25;100.00
35224;BME280;21367;51.930;8.112;2023-02-21T18:04:54;101191.97;;;9.31;100.00
35224;BME280;21367;51.930;8.112;2023-02-21T18:09:58;101189.84;;;9.24;100.00
35224;BME280;21367;51.930;8.112;2023-02-21T18:15:03;101193.81;;;9.02;100.00
35224;BME280;21367;51.930;8.112;2023-02-21T18:20:14;101194.81;;;9.21;100.00
35224;BME280;21367;51.930;8.112;2023-02-21T18:25:19;101197.50;;;9.08;100.00
35224;BME280;21367;51.930;8.112;2023-02-21T18:30:24;101201.09;;;9.26;100.00
35224;BME280;21367;51.930;8.112;2023-02-21T18:35:31;101200.03;;;9.22;100.00
35224;BME280;21367;51.930;8.112;2023-02-21T18:40:35;101193.53;;;8.98;100.00
35224;BME280;21367;51.930;8.112;2023-02-21T18:45:45;101205.19;;;8.93;100.00
35224;BME280;21367;51.930;8.112;2023-02-21T18:50:52;101200.75;;;9.05;100.00
35224;BME280;21367;51.930;8.112;2023-02-21T18:55:57;101199.81;;;8.73;100.00
35224;BME280;21367;51.930;8.112;2023-02-21T19:01:03;101193.47;;;8.52;100.00
35224;BME280;21367;51.930;8.112;2023-02-21T19:06:11;101199.31;;;8.49;100.00
35224;BME280;21367;51.930;8.112;2023-02-21T19:11:16;101189.44;;;8.13;100.00
35224;BME280;21367;51.930;8.112;2023-02-21T19:16:20;101191.19;;;8.56;100.00
35224;BME280;21367;51.930;8.112;2023-02-21T19:21:28;101195.19;;;7.67;100.00
35224;BME280;21367;51.930;8.112;2023-02-21T19:26:31;101192.88;;;7.57;100.00
35224;BME280;21367;51.930;8.112;2023-02-21T19:31:35;101188.41;;;7.96;100.00
35224;BME280;21367;51.930;8.112;2023-02-21T19:36:43;101178.66;;;8.46;100.00
35224;BME280;21367;51.930;8.112;2023-02-21T19:41:47;101181.47;;;8.51;100.00
35224;BME280;21367;51.930;8.112;2023-02-21T19:46:51;101183.59;;;8.30;100.00
35224;BME280;21367;51.930;8.112;2023-02-21T19:51:58;101178.19;;;8.68;100.00
35224;BME280;21367;51.930;8.112;2023-02-21T19:57:02;101172.19;;;8.38;100.00
35224;BME280;21367;51.930;8.112;2023-02-21T20:02:06;101180.63;;;8.37;100.00
35224;BME280;21367;51.930;8.112;2023-02-21T20:07:12;101179.88;;;8.10;100.00
35224;BME280;21367;51.930;8.112;2023-02-21T20:12:16;101173.88;;;8.52;100.00
35224;BME280;21367;51.930;8.112;2023-02-21T20:17:22;101169.78;;;8.71;100.00
35224;BME280;21367;51.930;8.112;2023-02-21T20:22:29;101168.31;;;8.74;100.00
35224;BME280;21367;51.930;8.112;2023-02-21T20:27:33;101157.41;;;8.49;100.00
35224;BME280;21367;51.930;8.112;2023-02-21T20:32:37;101158.19;;;8.33;100.00
35224;BME280;21367;51.930;8.112;2023-02-21T20:37:44;101157.88;;;7.42;100.00
35224;BME280;21367;51.930;8.112;2023-02-21T20:42:48;101157.50;;;7.50;100.00
35224;BME280;21367;51.930;8.112;2023-02-21T20:47:51;101158.56;;;7.81;100.00
35224;BME280;21367;51.930;8.112;2023-02-21T20:52:58;101162.97;;;7.84;100.00
35224;BME280;21367;51.930;8.112;2023-02-21T20:58:03;101161.72;;;8.20;100.00
35224;BME280;21367;51.930;8.112;2023-02-21T21:03:09;101162.50;;;7.76;100.00
35224;BME280;21367;51.930;8.112;2023-02-21T21:08:17;101160.03;;;8.06;100.00
35224;BME280;21367;51.930;8.112;2023-02-21T21:13:21;101151.31;;;7.89;100.00
35224;BME280;21367;51.930;8.112;2023-02-21T21:18:25;101155.72;;;8.34;100.00
35224;BME280;21367;51.930;8.112;2023-02-21T21:23:33;101146.38;;;7.77;100.00
35224;BME280;21367;51.930;8.112;2023-02-21T21:28:36;101152.31;;;7.35;100.00
35224;BME280;21367;51.930;8.112;2023-02-21T21:33:40;101157.03;;;8.13;100.00
35224;BME280;21367;51.930;8.112;2023-02-21T21:38:46;101153.81;;;8.45;100.00
35224;BME280;21367;51.930;8.112;2023-02-21T21:43:49;101144.91;;;8.53;100.00
35224;BME280;21367;51.930;8.112;2023-02-21T21:48:53;101150.09;;;7.54;100.00
35224;BME280;21367;51.930;8.112;2023-02-21T21:53:59;101145.81;;;8.11;100.00
35224;BME280;21367;51.930;8.112;2023-02-21T21:59:03;101143.16;;;8.09;100.00
35224;BME280;21367;51.930;8.112;2023-02-21T22:04:08;101134.84;;;7.56;100.00
35224;BME280;21367;51.930;8.112;2023-02-21T22:09:16;101136.59;;;7.85;100.00
35224;BME280;21367;51.930;8.112;2023-02-21T22:14:20;101128.72;;;8.25;100.00
35224;BME280;21367;51.930;8.112;2023-02-21T22:19:26;101121.56;;;8.64;100.00
35224;BME280;21367;51.930;8.112;2023-02-21T22:24:33;101104.69;;;8.38;100.00
35224;BME280;21367;51.930;8.112;2023-02-21T22:29:39;101104.84;;;7.96;100.00
35224;BME280;21367;51.930;8.112;2023-02-21T22:34:43;101097.44;;;8.16;100.00
35224;BME280;21367;51.930;8.112;2023-02-21T22:39:49;101087.81;;;8.26;100.00
35224;BME280;21367;51.930;8.112;2023-02-21T22:44:53;101082.09;;;8.16;100.00
35224;BME280;21367;51.930;8.112;2023-02-21T22:49:57;101076.84;;;7.84;100.00
35224;BME280;21367;51.930;8.112;2023-02-21T22:55:05;101077.91;;;7.45;100.00
35224;BME280;21367;51.930;8.112;2023-02-21T23:00:15;101071.88;;;7.30;100.00
35224;BME280;21367;51.930;8.112;2023-02-21T23:05:22;101065.94;;;7.16;100.00
35224;BME280;21367;51.930;8.112;2023-02-21T23:10:28;101064.94;;;7.42;100.00
35224;BME280;21367;51.930;8.112;2023-02-21T23:15:34;101062.75;;;7.20;100.00
35224;BME280;21367;51.930;8.112;2023-02-21T23:20:38;101062.31;;;7.40;100.00
35224;BME280;21367;51.930;8.112;2023-02-21T23:25:46;101060.19;;;7.33;100.00
35224;BME280;21367;51.930;8.112;2023-02-21T23:30:51;101059.56;;;7.37;100.00
35224;BME280;21367;51.930;8.112;2023-02-21T23:35:56;101064.56;;;7.64;100.00
35224;BME280;21367;51.930;8.112;2023-02-21T23:41:03;101059.66;;;7.82;100.00
35224;BME280;21367;51.930;8.112;2023-02-21T23:46:08;101051.56;;;7.46;100.00
35224;BME280;21367;51.930;8.112;2023-02-21T23:51:12;101046.69;;;7.94;100.00
35224;BME280;21367;51.930;8.112;2023-02-21T23:56:18;101036.00;;;8.16;100.00
